WEATHER DATA

TODAY
Time Temp. Dewp. Hum. Bar.
00:08 7.8 4.7 81 1025.3
00:17 7.6 4.6 81 1025.2
00:27 7.5 5 84 1025.2
00:38 7.4 4.9 84 1025.2
00:48 7.3 4.9 85 1025.4
00:57 7.2 4.9 85 1025.4
01:08 7.2 4.7 84 1025.3
01:18 7.1 4.9 86 1025.3
01:28 7 5 87 1025.2
01:37 6.9 4.7 86 1025.3
01:48 6.9 4.6 85 1025.3
01:58 6.9 4.9 87 1025
02:08 7 5 87 1025.2
02:18 6.9 4.7 86 1025.2
02:28 6.8 4.8 87 1024.9
02:38 6.8 4.8 87 1025
02:48 6.8 4.8 87 1024.8
02:59 6.9 4.7 86 1024.7
03:08 6.8 4.1 83 1024.7
03:18 6.8 4.3 84 1024.8
03:28 6.6 3.9 83 1025
03:39 6.5 4 84 1024.8
03:48 6.4 3.9 84 1024.6
03:58 6.3 4.3 87 1024.7
04:09 6.2 4.2 87 1024.8
04:19 6.2 4.7 90 1024.7
04:28 6.2 4 86 1024.7
04:39 6.2 4.2 87 1024.7
04:49 6.3 4.3 87 1024.6
04:59 6.4 5 91 1024.5
05:08 6.5 5.1 91 1024.6
05:19 6.6 5.2 91 1024.7
05:29 6.7 5.3 91 1024.6
05:39 6.8 5.3 90 1024.6
05:59 6.9 5.4 90 1024.4
06:09 7 5.2 88 1024.6
06:19 7.1 5.4 89 1024.7
06:29 7.1 5.2 88 1024.7
06:39 7.2 5.3 88 1024.7
06:49 7.2 5.5 89 1024.8
07:10 7.6 5.9 89 1024.9
07:19 7.7 5.7 87 1024.8
07:29 7.9 6 88 1024.9
07:40 8 6 87 1025
07:50 8.2 6.3 88 1024.9
07:59 8.3 6.3 87 1024.8
08:20 8.9 6.5 85 1024.7
08:30 9.3 6.6 83 1024.7
08:39 9.7 7 83 1024.8
08:50 10.1 6.8 80 1024.7
09:00 10.3 6.5 77 1024.6
09:15 10.8 6.2 73 1024.7
09:25 10.8 6 72 1024.5
09:35 10.9 6.3 73 1024.5
09:45 11 6.6 74 1024.6
09:55 11 6.6 74 1024.4
10:05 11.2 6.5 73 1024.4
10:15 11.1 6 71 1024.5
10:25 11.1 5.6 69 1024.3
10:36 11 5.3 68 1024.3
10:45 11.3 5.2 66 1024.5
10:55 11.8 5.9 67 1024.4
11:06 11.7 5.3 65 1024.3
11:16 11.6 5 64 1024.2
11:25 11.5 4.9 64 1024.3
11:51 11.7 5.3 65 1024.3
12:01 11.6 5 64 1024.3
12:10 11.5 5.2 65 1024.4
12:21 11.8 5.7 66 1024.2
12:36 12.7 6.3 65 1024.1
12:46 12.5 5.7 63 1024.1
12:56 12.5 5.4 62 1024.3
13:06 12.5 5.7 63 1024.2
13:16 12.9 6.3 64 1024.3
13:27 13.3 6.2 62 1024.2
13:36 13.7 6.3 61 1023.7
13:46 14.3 6.4 59 1023.7
13:56 14.7 6.5 58 1023.6
14:07 14.4 6.3 58 1023.7
14:16 14 5.6 57 1023.8
14:26 13.7 5.3 57 1023.8
14:37 13.9 6 59 1023.7
14:47 13.8 5.7 58 1023.6
14:56 14.3 6.2 58 1023.6
15:06 14.7 6 56 1023.7
15:17 14.5 5.8 56 1023.5
15:27 14.8 6.4 57 1023.4
15:37 14.5 5.8 56 1023.4
15:47 14.6 5.4 54 1023.3
15:57 14.6 5.4 54 1023.3
16:07 14.6 5.4 54 1023.4
16:17 14.5 5.6 55 1023.1
16:27 14.4 5.2 54 1023.3
16:37 14.3 5.7 56 1023.2
16:47 14.7 5.2 53 1023.1
16:58 14.6 5.1 53 1023.2
17:07 14.5 5 53 1023.2
17:17 14.1 4.9 54 1023.2
17:27 13.8 4.9 55 1023.3
17:38 13.7 5.1 56 1023.2
17:47 13.6 5.3 57 1023.1
17:57 13.6 5.3 57 1023.1
18:08 13.4 5.3 58 1023.2
18:18 13.2 5.1 58 1023.1
18:28 13.1 5 58 1023.2
18:38 13 4.9 58 1023.2
18:58 12.6 4.8 59 1023.1
19:08 12.6 5 60 1023.1
19:18 12.5 5 60 1023.1
19:28 12.5 5 60 1023

DAY STATISTIC

2018-06-23
TEMPERATURE
AVERAGE
10.3
HIGH
14.8
15:27
LOW
6.2
04:09
PRESSURE
AVERAGE
1024.3
HIGH
1025.4
00:48
LOW
1023.0
19:28
DEWPOINT
AVERAGE
5.4
HIGH
7.0
08:39
LOW
3.9
03:28
HUMIDITY
AVERAGE
73
HIGH
91
04:59
LOW
53
16:47
TEMPERATURE (°C)
LOW
6.2
HIGH
14.8
AVERAGE
10.3
PRESSURE (hpa)
LOW
1023.0
HIGH
1025.4
AVERAGE
1024.3
DEVICE